Time;durP1;ratioP1;P1;durP2;ratioP2;P2;SDS_P1;SDS_P2;PMS_P1;PMS_P2;Temp;Humidity;BMP_temperature;BMP_pressure;BME280_temperature;BME280_humidity;BME280_pressure;Samples;Min_cycle;Max_cycle;Signal;HPM_P1;HPM_P2
2023/03/21 00:01:45;;;;;;;8.20;6.73;;;;;;;14.40;55.36;94673.97;5072399;28;20934;-81
2023/03/21 00:04:12;;;;;;;14.40;7.50;;;;;;;14.36;55.53;94672.63;5072505;28;20984;-80
2023/03/21 00:06:40;;;;;;;9.07;7.30;;;;;;;14.27;55.33;94662.06;5072709;28;20448;-82
2023/03/21 00:09:07;;;;;;;8.07;6.70;;;;;;;14.12;55.85;94668.91;5072670;28;20950;-81
2023/03/21 00:11:34;;;;;;;10.47;7.23;;;;;;;14.02;56.00;94656.81;5072612;28;20448;-81
2023/03/21 00:14:01;;;;;;;8.17;6.63;;;;;;;14.07;56.26;94655.34;5072430;28;20550;-82
2023/03/21 00:16:29;;;;;;;8.80;6.40;;;;;;;14.05;56.15;94654.69;5072557;28;20811;-81
2023/03/21 00:18:57;;;;;;;16.87;11.47;;;;;;;14.08;56.63;94662.28;5072078;28;20455;-82
2023/03/21 00:21:27;;;;;;;16.23;11.20;;;;;;;14.08;57.06;94662.28;5072472;28;20444;-82
2023/03/21 00:23:55;;;;;;;22.07;12.17;;;;;;;14.08;56.94;94659.66;5072311;28;20458;-82
2023/03/21 00:26:22;;;;;;;21.23;12.37;;;;;;;14.03;56.77;94661.09;5072664;28;20447;-81
2023/03/21 00:28:49;;;;;;;16.13;12.87;;;;;;;13.80;57.49;94660.78;5053519;28;20444;-82
2023/03/21 00:31:16;;;;;;;18.00;12.60;;;;;;;13.74;57.66;94661.41;5072411;28;20535;-82
2023/03/21 00:33:43;;;;;;;19.87;12.60;;;;;;;13.75;57.87;94663.06;5072205;28;20977;-82
2023/03/21 00:36:12;;;;;;;17.27;13.70;;;;;;;13.75;57.98;94663.06;5072378;28;20450;-81
2023/03/21 00:38:39;;;;;;;22.03;12.90;;;;;;;13.71;58.24;94667.84;5072194;28;20864;-81
2023/03/21 00:41:08;;;;;;;21.20;13.90;;;;;;;13.72;58.38;94674.75;5072227;28;20887;-82
2023/03/21 00:43:36;;;;;;;20.83;14.30;;;;;;;13.75;58.03;94673.63;5072088;28;20817;-82
2023/03/21 00:46:03;;;;;;;18.70;14.10;;;;;;;13.73;58.44;94671.13;5072217;28;20451;-81
2023/03/21 00:48:30;;;;;;;18.53;13.83;;;;;;;13.70;58.55;94689.09;5072406;28;20450;-81
2023/03/21 00:50:59;;;;;;;17.70;12.90;;;;;;;13.61;58.36;94686.41;5074345;28;20941;-82
2023/03/21 00:53:26;;;;;;;22.30;13.83;;;;;;;13.51;57.39;94676.91;5076130;28;20920;-82
2023/03/21 00:55:53;;;;;;;23.20;14.40;;;;;;;13.45;57.26;94675.72;5076371;28;20434;-81
2023/03/21 00:58:22;;;;;;;22.87;14.90;;;;;;;13.38;57.06;94677.31;5075904;28;20439;-81
2023/03/21 01:00:49;;;;;;;25.57;15.17;;;;;;;13.35;57.56;94669.72;5057173;28;20489;-81
2023/03/21 01:03:16;;;;;;;25.73;15.73;;;;;;;13.35;57.35;94677.63;5075855;28;20944;-82
2023/03/21 01:06:04;;;;;;;27.90;15.47;;;;;;;13.27;57.63;94665.19;5075988;28;20935;-81
2023/03/21 01:08:32;;;;;;;26.77;15.83;;;;;;;13.35;57.30;94672.34;5075773;28;20442;-81
2023/03/21 01:11:02;;;;;;;24.63;13.60;;;;;;;13.39;57.43;94675.50;5075708;28;20450;-82
2023/03/21 01:13:31;;;;;;;23.53;16.23;;;;;;;13.40;57.73;94672.72;5075962;28;20520;-82
2023/03/21 01:15:58;;;;;;;20.73;14.27;;;;;;;13.39;57.51;94668.41;5075729;28;20453;-81
2023/03/21 01:18:28;;;;;;;23.43;16.50;;;;;;;13.45;57.31;94675.72;5040539;28;20850;-82
2023/03/21 01:20:56;;;;;;;24.93;15.20;;;;;;;13.46;57.62;94674.72;5075439;28;20489;-81
2023/03/21 01:23:23;;;;;;;27.53;14.90;;;;;;;13.46;57.04;94672.09;5075723;28;20448;-81
2023/03/21 01:25:52;;;;;;;24.30;16.80;;;;;;;13.47;57.12;94662.38;5075528;28;20448;-82
2023/03/21 01:28:18;;;;;;;24.23;14.50;;;;;;;13.47;57.09;94663.22;5075545;28;20446;-82
2023/03/21 01:30:47;;;;;;;27.00;15.93;;;;;;;13.44;57.28;94660.06;5075449;28;20842;-81
2023/03/21 01:33:15;;;;;;;19.70;14.50;;;;;;;13.47;57.22;94667.66;5075274;28;20504;-81
2023/03/21 01:35:42;;;;;;;34.20;15.83;;;;;;;13.44;57.29;94673.22;5075214;28;20974;-83
2023/03/21 01:38:10;;;;;;;23.00;15.30;;;;;;;13.41;57.36;94666.47;5075616;28;20954;-81
2023/03/21 01:40:37;;;;;;;23.00;15.13;;;;;;;13.36;57.08;94652.91;5075272;28;20556;-82
2023/03/21 01:43:04;;;;;;;17.80;13.20;;;;;;;13.33;57.98;94655.84;5075177;28;20439;-82
2023/03/21 01:46:12;;;;;;;19.77;13.87;;;;;;;13.26;58.55;94663.53;5056587;28;20457;-81
2023/03/21 01:48:42;;;;;;;24.80;14.23;;;;;;;13.15;58.32;94658.47;5074956;28;20444;-82
2023/03/21 01:51:11;;;;;;;21.50;14.13;;;;;;;13.11;58.70;94661.56;5075337;28;20434;-82
2023/03/21 01:53:40;;;;;;;19.00;12.73;;;;;;;12.97;59.46;94652.38;5074929;28;20442;-82
2023/03/21 01:56:13;;;;;;;16.57;11.70;;;;;;;13.04;59.90;94669.25;5075047;28;20449;-81
2023/03/21 01:58:42;;;;;;;15.63;10.63;;;;;;;12.91;60.01;94651.16;5074800;28;20446;-81
2023/03/21 02:01:11;;;;;;;17.30;13.07;;;;;;;12.94;59.73;94655.28;5074627;28;20507;-81
2023/03/21 02:03:49;;;;;;;20.63;12.17;;;;;;;12.93;59.46;94662.38;5074493;28;20453;-82
2023/03/21 02:06:22;;;;;;;15.43;11.80;;;;;;;12.94;59.96;94660.56;5075457;28;20508;-82
2023/03/21 02:08:49;;;;;;;17.47;11.67;;;;;;;12.86;60.36;94655.22;5056670;28;20449;-81
2023/03/21 02:11:19;;;;;;;13.77;10.00;;;;;;;12.80;60.60;94661.94;5074328;28;20509;-80
2023/03/21 02:13:45;;;;;;;16.27;10.77;;;;;;;12.76;61.24;94659.75;5074733;28;20429;-82
2023/03/21 02:16:21;;;;;;;13.97;8.50;;;;;;;12.72;61.22;94651.28;5074568;28;20441;-81
2023/03/21 02:18:56;;;;;;;11.43;8.87;;;;;;;12.66;61.38;94651.88;5074389;28;20456;-81
2023/03/21 02:21:51;;;;;;;16.27;8.23;;;;;;;12.56;61.93;94654.59;5074470;28;20502;-82
2023/03/21 02:25:00;;;;;;;11.20;8.17;;;;;;;12.46;62.16;94650.38;5052252;28;20871;-82
2023/03/21 02:27:30;;;;;;;14.00;7.80;;;;;;;12.38;62.74;94654.53;5051883;28;20450;-80
2023/03/21 02:30:39;;;;;;;13.47;8.10;;;;;;;12.31;63.31;94657.91;5052075;28;20442;-81
2023/03/21 02:33:37;;;;;;;9.70;7.77;;;;;;;12.23;63.13;94648.13;5051758;28;20477;-82
2023/03/21 02:36:26;;;;;;;12.83;8.33;;;;;;;12.22;63.93;94645.66;5051747;28;20446;-81
2023/03/21 02:39:00;;;;;;;13.10;8.90;;;;;;;12.11;64.53;94646.66;5051864;28;20604;-82
2023/03/21 02:41:39;;;;;;;13.27;9.37;;;;;;;12.08;64.19;94645.13;5051602;28;20511;-80
2023/03/21 02:44:15;;;;;;;10.77;7.80;;;;;;;12.08;64.45;94650.41;5051640;28;20825;-81
2023/03/21 02:46:46;;;;;;;14.77;8.20;;;;;;;12.03;64.98;94638.66;5051663;28;20503;-81
2023/03/21 02:49:21;;;;;;;16.57;7.43;;;;;;;11.99;64.51;94638.13;5051435;28;20793;-81
2023/03/21 02:51:50;;;;;;;10.80;7.30;;;;;;;11.91;64.76;94642.47;5051617;28;20460;-81
2023/03/21 02:54:23;;;;;;;9.37;7.50;;;;;;;11.88;65.55;94632.22;5034883;28;20446;-81
2023/03/21 02:56:54;;;;;;;11.00;7.60;;;;;;;11.84;65.45;94638.72;5051440;28;20453;-81
2023/03/21 02:59:24;;;;;;;9.07;7.10;;;;;;;11.74;65.50;94630.84;5051194;28;20450;-80
2023/03/21 03:01:52;;;;;;;11.13;7.20;;;;;;;11.71;66.04;94625.88;5065420;28;20488;-81
2023/03/21 03:04:21;;;;;;;8.07;6.83;;;;;;;11.69;65.66;94623.41;5073647;28;20539;-82
2023/03/21 03:07:05;;;;;;;11.27;8.20;;;;;;;11.71;65.31;94633.75;5038112;28;20440;-81
2023/03/21 03:09:48;;;;;;;13.10;7.27;;;;;;;11.71;65.61;94637.22;5073389;28;20455;-81
2023/03/21 03:12:25;;;;;;;11.13;8.57;;;;;;;11.69;nan;94638.34;5073503;28;20452;-81
2023/03/21 03:15:03;;;;;;;8.07;7.27;;;;;;;11.72;65.48;94641.50;5072387;28;20505;-80
2023/03/21 03:17:41;;;;;;;10.93;8.73;;;;;;;11.72;65.49;94640.69;5073578;28;20465;-81
2023/03/21 03:20:28;;;;;;;10.33;9.10;;;;;;;11.74;65.67;94641.38;5073093;28;20974;-82
2023/03/21 03:23:04;;;;;;;11.43;8.33;;;;;;;11.73;65.58;94635.28;4991210;28;20439;-80
2023/03/21 03:25:39;;;;;;;15.20;7.20;;;;;;;11.76;65.54;94642.88;4991789;28;20460;-81
2023/03/21 03:28:08;;;;;;;16.67;8.20;;;;;;;11.74;65.57;94636.09;4991851;28;20820;-81
2023/03/21 03:30:37;;;;;;;12.00;8.60;;;;;;;11.73;66.00;94644.97;4991533;28;20455;-81
2023/03/21 03:33:08;;;;;;;12.40;10.60;;;;;;;11.55;66.52;94650.13;4958747;28;20553;-80
2023/03/21 03:35:35;;;;;;;12.70;9.47;;;;;;;11.59;66.33;94646.25;4991437;28;20483;-81
2023/03/21 03:38:06;;;;;;;15.60;9.87;;;;;;;11.54;65.55;94643.22;4991501;28;20539;-81
2023/03/21 03:40:40;;;;;;;12.87;9.50;;;;;;;11.59;66.18;94648.06;4991400;28;20516;-81
2023/03/21 03:43:11;;;;;;;15.47;9.70;;;;;;;11.58;65.89;94649.88;4991401;28;20447;-82
2023/03/21 03:45:44;;;;;;;14.17;9.20;;;;;;;11.55;66.66;94655.38;4991455;28;20522;-82
2023/03/21 03:48:19;;;;;;;11.93;7.97;;;;;;;11.48;66.28;94656.91;4991239;28;20451;-81
2023/03/21 03:50:51;;;;;;;14.80;9.37;;;;;;;11.42;66.82;94652.22;4991068;28;20444;-81
2023/03/21 03:53:23;;;;;;;11.43;7.70;;;;;;;11.35;66.66;94657.22;4991094;28;20877;-81
2023/03/21 03:55:54;;;;;;;9.47;7.40;;;;;;;11.27;66.81;94651.81;4991214;28;20510;-82
2023/03/21 03:58:22;;;;;;;10.00;7.70;;;;;;;11.25;67.36;94647.69;4991195;28;20459;-81
2023/03/21 04:00:50;;;;;;;14.23;7.23;;;;;;;11.24;66.36;94643.41;5051374;28;20994;-81
2023/03/21 04:03:17;;;;;;;15.47;7.87;;;;;;;11.24;66.25;94649.47;5072695;28;20494;-81
2023/03/21 04:05:45;;;;;;;12.73;7.60;;;;;;;11.23;65.75;94652.25;5072813;28;20438;-81
2023/03/21 04:08:13;;;;;;;12.43;9.20;;;;;;;11.20;65.86;94647.28;5072390;28;20871;-83
2023/03/21 04:10:40;;;;;;;15.63;10.27;;;;;;;11.25;65.25;94651.13;5072493;28;20491;-81
2023/03/21 04:13:08;;;;;;;16.27;10.10;;;;;;;11.22;65.36;94645.34;5072478;28;20448;-81
2023/03/21 04:15:35;;;;;;;18.70;9.93;;;;;;;11.25;65.66;94655.56;5072503;28;20439;-82
2023/03/21 04:18:02;;;;;;;13.30;8.70;;;;;;;11.23;66.42;94652.25;5072839;28;20840;-82
2023/03/21 04:20:29;;;;;;;17.13;7.77;;;;;;;11.16;66.46;94647.56;5072837;28;20480;-81
2023/03/21 04:22:56;;;;;;;12.80;8.63;;;;;;;11.16;65.68;94644.94;5073511;28;20498;-81
2023/03/21 04:25:23;;;;;;;10.80;8.70;;;;;;;11.21;66.39;94651.56;5073221;28;20452;-81
2023/03/21 04:27:49;;;;;;;13.97;8.70;;;;;;;11.14;66.55;94640.78;5073351;28;20429;-82
2023/03/21 04:30:18;;;;;;;9.90;8.87;;;;;;;11.06;67.84;94638.03;5073742;28;20429;-82
2023/03/21 04:32:55;;;;;;;10.80;9.10;;;;;;;11.06;68.66;94645.91;5073550;28;20476;-82
2023/03/21 04:35:24;;;;;;;13.77;9.80;;;;;;;11.03;69.01;94640.94;5072389;28;20441;-82
2023/03/21 04:37:51;;;;;;;14.60;8.80;;;;;;;11.02;68.25;94645.38;5072447;28;20523;-81
2023/03/21 04:40:18;;;;;;;15.77;9.73;;;;;;;10.98;69.00;94651.84;5072069;28;20444;-82
2023/03/21 04:42:46;;;;;;;14.37;8.80;;;;;;;10.93;69.43;94645.34;5073200;28;20437;-82
2023/03/21 04:45:14;;;;;;;13.20;9.90;;;;;;;10.92;69.23;94654.19;5073512;28;20437;-82
2023/03/21 04:47:42;;;;;;;13.83;9.40;;;;;;;10.90;69.63;94649.09;5072831;28;21004;-81
2023/03/21 04:50:11;;;;;;;12.73;9.83;;;;;;;10.91;70.22;94645.50;5054794;28;20531;-82
2023/03/21 04:52:38;;;;;;;13.63;9.40;;;;;;;10.94;70.67;94641.75;5073216;28;20441;-81
2023/03/21 04:55:09;;;;;;;14.30;10.33;;;;;;;11.07;70.10;94652.81;5073431;28;20441;-82
2023/03/21 04:57:36;;;;;;;17.63;9.50;;;;;;;11.19;70.23;94646.44;5073290;28;20930;-82
2023/03/21 05:00:08;;;;;;;13.30;8.93;;;;;;;11.31;69.78;94649.78;5073227;28;20456;-79
2023/03/21 05:02:35;;;;;;;13.03;9.80;;;;;;;11.40;68.46;94651.53;5058392;28;20487;-82
2023/03/21 05:05:03;;;;;;;16.63;9.80;;;;;;;12.04;68.08;94659.56;5074185;28;20475;-82
2023/03/21 05:07:31;;;;;;;10.90;8.90;;;;;;;12.08;64.23;94658.28;5073055;28;20436;-83
2023/03/21 05:09:58;;;;;;;15.47;9.17;;;;;;;12.00;64.80;94657.34;5038534;28;20453;-80
2023/03/21 05:12:25;;;;;;;9.73;8.37;;;;;;;11.89;64.00;94658.38;5073003;28;20460;-81
2023/03/21 05:14:52;;;;;;;19.43;9.90;;;;;;;11.69;64.23;94648.84;5054416;28;20947;-80
2023/03/21 05:17:22;;;;;;;11.90;7.60;;;;;;;11.65;65.04;94658.81;5072772;28;20447;-81
2023/03/21 05:19:49;;;;;;;12.90;8.87;;;;;;;11.49;65.34;94664.66;5071306;28;20706;-80
2023/03/21 05:22:18;;;;;;;9.50;7.60;;;;;;;11.47;65.64;94668.41;5071411;28;20480;-80
2023/03/21 05:24:48;;;;;;;12.10;7.03;;;;;;;11.39;66.16;94657.78;5071473;28;20451;-81
2023/03/21 05:27:35;;;;;;;16.60;8.50;;;;;;;11.35;66.91;94664.28;5036990;28;20539;-81
2023/03/21 05:30:07;;;;;;;10.50;8.23;;;;;;;11.36;66.98;94666.75;5071126;28;20429;-81
2023/03/21 05:32:34;;;;;;;13.03;7.83;;;;;;;11.40;66.56;94659.44;5071281;28;20498;-81
2023/03/21 05:35:00;;;;;;;14.40;8.97;;;;;;;11.43;66.36;94672.28;5071260;28;20471;-81
2023/03/21 05:37:29;;;;;;;12.53;8.80;;;;;;;11.46;65.70;94664.13;5072597;28;20457;-81
2023/03/21 05:39:56;;;;;;;10.30;8.80;;;;;;;11.47;65.68;94669.22;5075392;28;20435;-81
2023/03/21 05:42:23;;;;;;;10.27;8.53;;;;;;;11.58;65.31;94660.38;5074794;28;20489;-81
2023/03/21 05:44:49;;;;;;;12.63;8.70;;;;;;;11.65;65.31;94666.72;5075291;28;20501;-80
2023/03/21 05:47:17;;;;;;;14.37;9.43;;;;;;;11.71;65.81;94667.94;5076018;28;20510;-80
2023/03/21 05:49:46;;;;;;;12.10;9.17;;;;;;;11.75;64.89;94659.63;5074347;28;20448;-81
2023/03/21 05:52:12;;;;;;;18.30;9.80;;;;;;;11.85;65.54;94658.78;5076037;28;20460;-82
2023/03/21 05:54:41;;;;;;;13.10;10.30;;;;;;;11.88;66.09;94654.09;5075643;28;20453;-83
2023/03/21 05:57:08;;;;;;;19.43;9.83;;;;;;;11.93;64.99;94651.03;5075887;28;20811;-81
2023/03/21 05:59:35;;;;;;;18.40;11.77;;;;;;;11.90;65.64;94649.53;5075046;28;20457;-87
2023/03/21 06:02:02;;;;;;;26.03;10.43;;;;;;;11.93;65.73;94661.53;5074918;28;20568;-87
2023/03/21 06:04:29;;;;;;;15.87;9.00;;;;;;;11.92;65.52;94650.19;5074744;28;20927;-83
2023/03/21 06:06:56;;;;;;;12.13;9.23;;;;;;;11.96;65.64;94640.22;5074374;28;20527;-85
2023/03/21 06:09:23;;;;;;;10.00;8.50;;;;;;;11.99;65.46;94645.19;5074891;28;20521;-84
2023/03/21 06:11:55;;;;;;;10.07;8.20;;;;;;;11.99;65.11;94642.56;5074699;28;20453;-92
2023/03/21 06:14:23;;;;;;;9.70;8.43;;;;;;;12.01;64.51;94637.97;5075556;28;20498;-88
2023/03/21 06:16:51;;;;;;;10.23;8.17;;;;;;;12.01;64.48;94625.66;5074519;28;20530;-85
2023/03/21 06:19:18;;;;;;;10.43;7.90;;;;;;;12.10;64.21;94627.41;5072298;28;20441;-84
2023/03/21 06:21:45;;;;;;;19.20;8.40;;;;;;;12.16;65.04;94627.81;5054884;28;20488;-84
2023/03/21 06:24:11;;;;;;;11.73;9.43;;;;;;;12.23;64.37;94631.53;5074388;28;20446;-85
2023/03/21 06:26:38;;;;;;;16.77;10.10;;;;;;;12.23;64.06;94632.34;5074350;28;20457;-85
2023/03/21 06:29:07;;;;;;;11.73;9.00;;;;;;;12.32;63.96;94634.09;5072450;28;20975;-83
2023/03/21 06:31:33;;;;;;;13.93;8.70;;;;;;;12.29;64.03;94615.97;5073610;28;20453;-84
2023/03/21 06:34:00;;;;;;;13.13;8.10;;;;;;;12.36;63.52;94622.28;5073682;28;20480;-85
2023/03/21 06:36:28;;;;;;;13.53;9.07;;;;;;;12.43;64.24;94633.03;5073222;28;20442;-85
2023/03/21 06:38:54;;;;;;;8.60;7.63;;;;;;;12.50;66.21;94634.13;5073781;28;21051;-83
2023/03/21 06:41:21;;;;;;;9.90;7.77;;;;;;;12.56;64.88;94630.06;5073676;28;20489;-84
2023/03/21 06:43:48;;;;;;;16.17;10.13;;;;;;;12.60;64.62;94634.06;5073477;28;20507;-84
2023/03/21 06:46:16;;;;;;;17.63;8.40;;;;;;;12.64;63.73;94635.41;5073535;28;20448;-83
2023/03/21 06:48:44;;;;;;;11.80;8.13;;;;;;;12.71;63.39;94636.47;5073539;28;20437;-82
2023/03/21 06:51:12;;;;;;;17.60;9.63;;;;;;;12.86;64.06;94642.06;5073598;28;20441;-83
2023/03/21 06:53:40;;;;;;;12.90;8.07;;;;;;;12.93;63.93;94629.94;5073483;28;20436;-82
2023/03/21 06:56:08;;;;;;;14.00;8.60;;;;;;;13.16;62.70;94639.03;5073962;28;20444;-83
2023/03/21 06:58:35;;;;;;;10.60;7.93;;;;;;;13.48;64.88;94635.03;5073942;28;20454;-86
2023/03/21 07:01:03;;;;;;;11.90;9.90;;;;;;;13.80;60.78;94635.25;5076193;28;20450;-89
2023/03/21 07:03:31;;;;;;;14.17;8.67;;;;;;;14.05;59.79;94643.31;5076057;28;20449;-89
2023/03/21 07:05:59;;;;;;;20.03;10.43;;;;;;;14.14;60.03;94645.00;5075607;28;20932;-90
2023/03/21 07:08:26;;;;;;;18.83;11.00;;;;;;;14.29;60.77;94647.88;5075089;28;20449;-89
2023/03/21 07:10:56;;;;;;;15.90;11.20;;;;;;;14.44;60.30;94655.03;5075043;28;20466;-90
2023/03/21 07:13:23;;;;;;;20.87;12.47;;;;;;;14.52;60.20;94656.91;5075063;28;20457;-91
2023/03/21 07:15:50;;;;;;;25.87;14.37;;;;;;;14.45;59.88;94656.69;5075028;28;20796;-88
2023/03/21 07:18:31;;;;;;;21.40;13.37;;;;;;;14.15;62.10;94657.19;5075125;28;20439;-90
2023/03/21 07:20:58;;;;;;;20.43;12.50;;;;;;;14.17;62.05;94656.09;5075020;28;20697;-91
2023/03/21 07:23:27;;;;;;;20.80;12.03;;;;;;;13.93;61.85;94646.22;5075195;28;20449;-90
2023/03/21 07:25:54;;;;;;;24.00;14.10;;;;;;;13.87;62.70;94661.81;5075310;28;20455;-89
2023/03/21 07:28:21;;;;;;;25.73;14.60;;;;;;;13.83;62.91;94660.47;5074579;28;20827;-90
2023/03/21 07:30:53;;;;;;;29.43;13.50;;;;;;;13.76;63.12;94652.38;5074262;28;20941;-90
2023/03/21 07:33:21;;;;;;;24.30;14.43;;;;;;;13.90;63.30;94656.25;5075953;28;20987;-91
2023/03/21 07:35:50;;;;;;;26.20;14.57;;;;;;;14.02;63.59;94649.72;5075621;28;20955;-87
2023/03/21 07:38:17;;;;;;;23.07;14.23;;;;;;;14.22;63.03;94648.50;5075516;28;20448;-89
2023/03/21 07:40:45;;;;;;;26.57;13.80;;;;;;;14.45;62.99;94646.13;5075363;28;20452;-92
2023/03/21 07:43:12;;;;;;;27.57;14.60;;;;;;;14.55;61.64;94648.66;5074893;28;20492;-91
2023/03/21 07:45:39;;;;;;;22.50;14.00;;;;;;;14.66;60.84;94642.25;5075111;28;20452;-92
2023/03/21 07:48:06;;;;;;;27.20;14.00;;;;;;;14.77;60.32;94631.41;5075268;28;20453;-91
2023/03/21 07:50:33;;;;;;;23.77;14.40;;;;;;;14.88;60.21;94642.47;5075279;28;20460;-88
2023/03/21 07:53:02;;;;;;;24.83;16.00;;;;;;;14.94;60.08;94648.09;5075016;28;20934;-90
2023/03/21 07:55:29;;;;;;;26.53;14.30;;;;;;;14.94;59.70;94646.28;5075105;28;20458;-85
2023/03/21 07:57:56;;;;;;;20.90;13.80;;;;;;;14.95;60.29;94652.41;5075051;28;20455;-92
2023/03/21 08:00:23;;;;;;;25.33;15.80;;;;;;;14.82;59.87;94642.31;5074361;28;20858;-92
2023/03/21 08:02:53;;;;;;;19.93;14.80;;;;;;;14.83;60.40;94644.78;5074933;28;20572;-93
2023/03/21 08:05:21;;;;;;;20.93;14.43;;;;;;;14.77;59.50;94640.16;5075369;28;20457;-91
2023/03/21 08:07:48;;;;;;;22.80;14.40;;;;;;;14.81;58.92;94661.78;5074695;28;21038;-91
2023/03/21 08:10:18;;;;;;;26.83;16.57;;;;;;;14.77;58.68;94644.63;5075141;28;20471;-92
2023/03/21 08:12:46;;;;;;;19.23;15.30;;;;;;;14.92;59.49;94658.84;5075029;28;20449;-92
2023/03/21 08:15:14;;;;;;;23.70;16.17;;;;;;;14.97;59.76;94648.59;5074821;28;20457;-92
2023/03/21 08:17:44;;;;;;;24.80;15.00;;;;;;;15.06;59.17;94642.34;5075169;28;20449;-91
2023/03/21 08:20:13;;;;;;;23.90;16.10;;;;;;;15.08;58.34;94639.56;5075303;28;20507;-91
2023/03/21 08:22:40;;;;;;;20.50;16.23;;;;;;;15.14;58.10;94647.63;5075034;28;20483;-90
2023/03/21 08:25:09;;;;;;;26.60;15.10;;;;;;;15.34;58.58;94644.69;5074950;28;20452;-92
2023/03/21 08:27:38;;;;;;;29.10;16.13;;;;;;;15.34;57.59;94634.94;5075246;28;20535;-91
2023/03/21 08:30:06;;;;;;;27.47;17.73;;;;;;;15.47;56.85;94637.06;5077829;28;20445;-91
2023/03/21 08:32:37;;;;;;;30.70;17.60;;;;;;;15.50;56.93;94626.97;5074962;28;20447;-91
2023/03/21 08:35:08;;;;;;;30.63;17.30;;;;;;;15.55;57.03;94625.66;5074999;28;20456;-92
2023/03/21 08:37:35;;;;;;;34.37;17.43;;;;;;;15.39;56.48;94629.16;5074695;28;20457;-92
2023/03/21 08:40:05;;;;;;;36.10;20.20;;;;;;;15.47;56.19;94645.84;5075267;28;20454;-92
2023/03/21 08:42:32;;;;;;;26.30;19.10;;;;;;;15.48;56.02;94647.47;5074942;28;20492;-91
2023/03/21 08:45:01;;;;;;;27.47;17.60;;;;;;;15.54;55.30;94640.69;5074600;28;20441;-90
2023/03/21 08:47:28;;;;;;;32.60;18.83;;;;;;;15.55;54.20;94645.00;5074624;28;20463;-90
2023/03/21 08:49:57;;;;;;;27.47;17.97;;;;;;;15.60;54.55;94636.59;5084263;28;20951;-90
2023/03/21 08:52:25;;;;;;;24.23;15.60;;;;;;;15.60;54.77;94637.41;5075670;28;20451;-91
2023/03/21 08:54:52;;;;;;;28.60;18.10;;;;;;;15.55;54.99;94630.94;5075970;28;20507;-92
2023/03/21 08:57:19;;;;;;;30.23;18.07;;;;;;;15.62;54.64;94631.97;5076143;28;20452;-91
2023/03/21 08:59:50;;;;;;;32.73;17.90;;;;;;;15.58;55.27;94633.25;5076130;28;20437;-91
2023/03/21 09:02:18;;;;;;;29.33;16.90;;;;;;;15.62;55.28;94634.63;5076359;28;20561;-91
2023/03/21 09:04:46;;;;;;;36.90;18.60;;;;;;;15.59;55.01;94627.00;5076247;28;20455;-92
2023/03/21 09:07:13;;;;;;;31.80;18.10;;;;;;;15.53;54.48;94617.06;5075578;28;20483;-90
2023/03/21 09:09:41;;;;;;;27.03;18.17;;;;;;;15.38;55.24;94623.03;5076377;28;20451;-92
2023/03/21 09:12:08;;;;;;;57.07;21.10;;;;;;;15.35;55.22;94628.66;5081204;28;20941;-90
2023/03/21 09:14:37;;;;;;;34.23;17.73;;;;;;;15.34;55.18;94627.00;5079598;28;20459;-92
2023/03/21 09:17:04;;;;;;;26.57;17.67;;;;;;;15.23;55.61;94621.19;5078758;28;20456;-92
2023/03/21 09:19:33;;;;;;;27.00;18.20;;;;;;;15.41;56.29;94622.69;5079102;28;20466;-90
2023/03/21 09:22:01;;;;;;;31.67;18.10;;;;;;;15.58;56.26;94620.88;5079004;28;20946;-91
2023/03/21 09:24:32;;;;;;;23.00;16.40;;;;;;;15.71;55.74;94608.00;5084438;28;20440;-90
2023/03/21 09:26:59;;;;;;;32.40;18.07;;;;;;;15.58;54.63;94594.44;5097974;28;20486;-89
2023/03/21 09:29:26;;;;;;;34.87;18.90;;;;;;;15.72;53.98;94607.00;5085122;28;20457;-89
2023/03/21 09:31:53;;;;;;;36.23;19.80;;;;;;;15.80;53.96;94599.03;5080883;28;20444;-90
2023/03/21 09:34:21;;;;;;;34.40;18.80;;;;;;;15.85;54.81;94598.53;5092894;28;20481;-90
2023/03/21 09:36:53;;;;;;;28.83;19.53;;;;;;;15.90;53.39;94588.28;5080480;28;20459;-90
2023/03/21 09:39:20;;;;;;;28.03;17.70;;;;;;;15.96;53.74;94586.75;5096673;28;20426;-89
2023/03/21 09:42:04;;;;;;;32.03;19.03;;;;;;;16.08;53.40;94588.88;5101003;28;20458;-87
2023/03/21 09:44:43;;;;;;;29.67;17.43;;;;;;;16.10;52.14;94583.41;5101619;28;20452;-90
2023/03/21 09:47:20;;;;;;;45.43;20.50;;;;;;;16.21;52.66;94582.22;5101696;28;20441;-91
2023/03/21 09:49:52;;;;;;;32.07;16.83;;;;;;;16.34;52.18;94582.47;5101579;28;20506;-90
2023/03/21 09:52:24;;;;;;;38.00;17.30;;;;;;;16.49;51.98;94585.22;5100644;28;20471;-89
2023/03/21 09:54:52;;;;;;;28.80;18.17;;;;;;;16.61;51.29;94579.34;5100488;28;20462;-87
2023/03/21 09:57:30;;;;;;;32.10;19.30;;;;;;;16.77;51.72;94581.13;5100124;28;20521;-90
2023/03/21 10:00:07;;;;;;;37.60;18.73;;;;;;;16.81;51.58;94576.31;5100403;28;20435;-86
2023/03/21 10:02:38;;;;;;;32.70;19.10;;;;;;;16.99;51.95;94574.16;5099973;28;20475;-88
2023/03/21 10:05:13;;;;;;;32.10;18.40;;;;;;;16.96;49.83;94567.41;5100058;28;20444;-87
2023/03/21 10:07:46;;;;;;;25.20;18.23;;;;;;;16.94;50.17;94563.28;5100080;28;20485;-87
2023/03/21 10:10:17;;;;;;;25.50;16.97;;;;;;;17.06;50.11;94568.97;5099925;28;20439;-87
2023/03/21 10:12:46;;;;;;;30.20;19.43;;;;;;;17.23;51.15;94558.06;5099856;28;20444;-88
2023/03/21 10:15:17;;;;;;;24.97;16.70;;;;;;;17.38;49.05;94552.81;5100329;28;20439;-88
2023/03/21 10:17:49;;;;;;;27.60;17.50;;;;;;;17.58;49.34;94550.44;5100325;28;20451;-88
2023/03/21 10:20:20;;;;;;;31.20;18.27;;;;;;;17.56;46.53;94547.16;5099377;28;20416;-87
2023/03/21 10:22:50;;;;;;;19.10;13.50;;;;;;;17.49;46.91;94540.94;5099036;28;20461;-89
2023/03/21 10:25:20;;;;;;;18.07;11.47;;;;;;;17.49;44.54;94535.63;5092202;28;20448;-86
2023/03/21 10:27:50;;;;;;;16.90;11.93;;;;;;;17.69;45.24;94539.44;5097261;28;20441;-78
2023/03/21 10:30:26;;;;;;;28.80;15.60;;;;;;;17.88;46.43;94546.84;5099740;28;20451;-80
2023/03/21 10:32:54;;;;;;;21.47;14.90;;;;;;;18.04;45.74;94547.69;5099312;28;20515;-83
2023/03/21 10:35:21;;;;;;;23.63;13.23;;;;;;;18.19;45.02;94549.28;5099288;28;20467;-83
2023/03/21 10:37:50;;;;;;;21.20;14.10;;;;;;;18.13;43.48;94560.66;5099054;28;20528;-84
2023/03/21 10:40:18;;;;;;;22.33;14.60;;;;;;;18.19;44.81;94554.63;5099795;28;20454;-85
2023/03/21 10:42:44;;;;;;;20.13;11.97;;;;;;;18.20;43.25;94555.44;5099327;28;20476;-83
2023/03/21 10:45:17;;;;;;;14.80;11.37;;;;;;;18.11;42.74;94551.25;5099199;28;20428;-85
2023/03/21 10:47:47;;;;;;;10.73;9.20;;;;;;;18.00;41.32;94541.09;5082011;28;20453;-87
2023/03/21 10:50:18;;;;;;;15.33;7.57;;;;;;;17.98;41.40;94543.13;5099118;28;20424;-87
2023/03/21 10:52:51;;;;;;;8.13;7.10;;;;;;;18.43;41.10;94534.88;5098548;28;20426;-86
2023/03/21 10:55:23;;;;;;;7.70;6.73;;;;;;;18.49;40.33;94530.66;5099524;28;20198;-81
2023/03/21 10:57:56;;;;;;;11.43;8.80;;;;;;;18.55;39.81;94533.41;5098681;28;20438;-81
2023/03/21 11:00:26;;;;;;;11.00;7.40;;;;;;;18.44;40.11;94525.91;5098753;28;20467;-86
2023/03/21 11:02:53;;;;;;;14.17;7.97;;;;;;;18.18;40.29;94515.78;5098727;28;20486;-84
2023/03/21 11:05:25;;;;;;;13.33;8.70;;;;;;;18.14;41.19;94513.69;5098743;28;20456;-87
2023/03/21 11:08:02;;;;;;;14.60;9.67;;;;;;;17.90;42.37;94512.97;5099114;28;20445;-87
2023/03/21 11:10:32;;;;;;;12.97;7.93;;;;;;;17.67;42.17;94506.09;5098969;28;20440;-87
2023/03/21 11:13:05;;;;;;;18.07;9.43;;;;;;;17.84;42.21;94504.94;5098546;28;20424;-82
2023/03/21 11:15:40;;;;;;;14.53;8.90;;;;;;;17.81;43.05;94500.81;5097964;28;20453;-82
2023/03/21 11:18:17;;;;;;;18.27;9.93;;;;;;;17.85;43.21;94503.91;5080730;28;20843;-83
2023/03/21 11:20:50;;;;;;;15.27;9.00;;;;;;;17.86;41.56;94506.38;5097629;28;20466;-83
2023/03/21 11:23:19;;;;;;;18.03;9.27;;;;;;;17.79;40.93;94500.19;5082539;28;20485;-82
2023/03/21 11:25:48;;;;;;;11.67;8.57;;;;;;;17.77;41.24;94494.22;5074962;28;20516;-82
2023/03/21 11:28:18;;;;;;;13.93;8.17;;;;;;;17.83;39.81;94498.78;5074106;28;20455;-83
2023/03/21 11:30:56;;;;;;;10.30;7.40;;;;;;;17.92;40.19;94489.72;5073244;28;21041;-84
2023/03/21 11:33:27;;;;;;;15.30;7.83;;;;;;;18.08;40.02;94491.34;5074184;28;20479;-82
2023/03/21 11:36:05;;;;;;;17.23;9.80;;;;;;;18.17;40.03;94476.97;5073302;28;21080;-83